Rockhurst, New York
Current Conditions -  °F | °C
As of 11:08 AM on Saturday 25 Oct 2014 (Local Time) from KGFL Reporting Station
Scattered Clouds Scattered Clouds  
Wind Chill: 45°   Ceiling: Unl
Heat Index: 47°   Visibility: 8mi
Dew Point: 44°   Wind: 5mph
Humidity: 90%   Direction: 160°SSE
Pressure: 29.77"   Gusts: NA
Location:  43.4773°N, 73.6433°W
Report Text: KGFL 251508Z AUTO 16004KT 8SM SCT006 SCT065 08/07 A2977 RMK AO2 T00830067
Loading
Personal Weather Stations






























Interactive Weather Map
Tropical Storm Tracking
New forecast layout! Learn more

10-Day Weather Forecast

Advertisements
Track Severe Weather on mobile